Back to Top

Language: 

My Weather Underground Personal Weather Station Historical Data with Graphs...

Delerius Weather Station Historical Data
Daily Summary for February 22, 2017 Units:  English    Metric   Both
« Previous Day
Next Day »
Daily Weekly Monthly Yearly Custom
  High: Low: Average:
Temperature: 52.8 °F 44.6 °F 49 °F
Dew Point: 49.5 °F 38.9 °F 43.3 °F
Humidity: 93 % 62 % 81 %
Wind Speed: 30.0 mph 0.0 mph 16.3 mph
Wind Gust: 39.0 mph - -
Wind:- - West
Pressure: 29.64 in 29.52 in -
Precipitation: 0.07 in    
Historical Graphs
 
 
Tabular Data for February 22, 2017
Time Temperature Dew Point Pressure Wind Wind Speed Wind Gust Humidity Rainfall Rate (Hourly) solar Conditions
00:00 52.3 °F 49.5 °F 29.56 in West 23.0 mph 30.0 mph 90 % 0.00 in 0 W/m2
00:05 52.2 °F 49.4 °F 29.56 in WSW 22.0 mph 30.0 mph 90 % 0.00 in 0 W/m2
00:15 52.0 °F 49.2 °F 29.56 in WNW 22.0 mph 22.0 mph 90 % 0.00 in 0 W/m2
00:20 52.0 °F 49.2 °F 29.55 in West 23.0 mph 35.0 mph 90 % 0.00 in 0 W/m2
00:30 51.9 °F 49.4 °F 29.55 in WNW 23.0 mph 30.0 mph 91 % 0.00 in 0 W/m2
00:35 51.8 °F 49.3 °F 29.55 in West 23.0 mph 30.0 mph 91 % 0.00 in 0 W/m2
00:40 51.8 °F 49.3 °F 29.55 in West 23.0 mph 24.0 mph 91 % 0.00 in 0 W/m2
00:45 51.7 °F 49.2 °F 29.55 in WNW 22.0 mph 24.0 mph 91 % 0.00 in 0 W/m2
00:50 51.7 °F 49.2 °F 29.54 in West 22.0 mph 22.0 mph 91 % 0.00 in 0 W/m2
01:00 51.7 °F 49.2 °F 29.54 in West 21.0 mph 23.0 mph 91 % 0.00 in 0 W/m2
01:10 51.8 °F 49.0 °F 29.52 in West 23.0 mph 39.0 mph 90 % 0.00 in 0 W/m2
01:15 52.0 °F 48.9 °F 29.52 in WNW 26.0 mph 39.0 mph 89 % 0.00 in 0 W/m2
01:20 52.3 °F 48.9 °F 29.52 in West 28.0 mph 39.0 mph 88 % 0.00 in 0 W/m2
01:25 52.5 °F 48.7 °F 29.52 in West 29.0 mph 39.0 mph 87 % 0.00 in 0 W/m2
01:30 52.7 °F 48.6 °F 29.53 in West 30.0 mph 30.0 mph 86 % 0.00 in 0 W/m2
01:40 52.8 °F 48.7 °F 29.53 in WNW 30.0 mph 39.0 mph 86 % 0.00 in 0 W/m2
01:50 52.7 °F 48.9 °F 29.55 in WSW 27.0 mph 27.0 mph 87 % 0.00 in 0 W/m2
01:55 52.4 °F 48.9 °F 29.54 in SW 26.0 mph 39.0 mph 88 % 0.00 in 0 W/m2
02:00 52.2 °F 48.8 °F 29.55 in West 26.0 mph 39.0 mph 88 % 0.00 in 0 W/m2
02:05 52.2 °F 48.8 °F 29.55 in West 26.0 mph 39.0 mph 88 % 0.00 in 0 W/m2
02:15 52.2 °F 49.1 °F 29.55 in West 27.0 mph 39.0 mph 89 % 0.00 in 0 W/m2
02:20 51.9 °F 48.8 °F 29.56 in WNW 29.0 mph 29.0 mph 89 % 0.00 in 0 W/m2
02:30 51.7 °F 48.9 °F 29.56 in West 25.0 mph 39.0 mph 90 % 0.00 in 0 W/m2
02:35 51.8 °F 49.0 °F 29.57 in WNW 24.0 mph 39.0 mph 90 % 0.00 in 0 W/m2
02:40 51.9 °F 48.5 °F 29.57 in West 24.0 mph 24.0 mph 88 % 0.00 in 0 W/m2
02:45 52.0 °F 48.3 °F 29.57 in West 23.0 mph 39.0 mph 87 % 0.00 in 0 W/m2
02:50 52.3 °F 48.2 °F 29.57 in WNW 25.0 mph 25.0 mph 86 % 0.00 in 0 W/m2
02:55 52.5 °F 48.1 °F 29.57 in WNW 28.0 mph 28.0 mph 85 % 0.00 in 0 W/m2
03:00 52.5 °F 48.1 °F 29.56 in WNW 27.0 mph 27.0 mph 85 % 0.00 in 0 W/m2
03:05 52.5 °F 47.8 °F 29.56 in West 26.0 mph 28.0 mph 84 % 0.00 in 0 W/m2
03:15 52.3 °F 47.9 °F 29.57 in West 23.0 mph 39.0 mph 85 % 0.00 in 0 W/m2
03:20 52.3 °F 47.9 °F 29.57 in West 24.0 mph 39.0 mph 85 % 0.00 in 0 W/m2
03:25 52.1 °F 48.0 °F 29.57 in WNW 24.0 mph 39.0 mph 86 % 0.00 in 0 W/m2
03:30 51.8 °F 48.1 °F 29.57 in West 24.0 mph 24.0 mph 87 % 0.00 in 0 W/m2
03:35 51.4 °F 48.0 °F 29.57 in NW 23.0 mph 39.0 mph 88 % 0.00 in 0 W/m2
03:45 51.2 °F 48.1 °F 29.57 in West 21.0 mph 21.0 mph 89 % 0.00 in 0 W/m2
03:50 51.1 °F 47.7 °F 29.57 in West 21.0 mph 21.0 mph 88 % 0.00 in 0 W/m2
04:00 51.0 °F 47.6 °F 29.58 in WNW 21.0 mph 39.0 mph 88 % 0.00 in 0 W/m2
04:05 50.9 °F 47.5 °F 29.58 in WNW 21.0 mph 39.0 mph 88 % 0.00 in 0 W/m2
04:10 50.9 °F 47.5 °F 29.58 in West 22.0 mph 39.0 mph 88 % 0.00 in 0 W/m2
04:20 50.6 °F 46.9 °F 29.58 in WNW 20.0 mph 20.0 mph 87 % 0.00 in 0 W/m2
04:25 50.4 °F 46.7 °F 29.58 in WNW 20.0 mph 39.0 mph 87 % 0.00 in 0 W/m2
04:30 50.1 °F 46.7 °F 29.58 in West 20.0 mph 20.0 mph 88 % 0.00 in 0 W/m2
04:35 50.0 °F 46.6 °F 29.58 in West 18.0 mph 28.0 mph 88 % 0.00 in 0 W/m2
04:40 49.8 °F 46.4 °F 29.59 in WNW 18.0 mph 39.0 mph 88 % 0.00 in 0 W/m2
04:45 49.8 °F 46.4 °F 29.59 in NW 20.0 mph 39.0 mph 88 % 0.00 in 0 W/m2
04:50 49.7 °F 46.3 °F 29.59 in WNW 20.0 mph 39.0 mph 88 % 0.00 in 0 W/m2
04:55 49.6 °F 46.2 °F 29.59 in West 19.0 mph 39.0 mph 88 % 0.00 in 0 W/m2
05:05 49.1 °F 45.4 °F 29.59 in WNW 20.0 mph 39.0 mph 87 % 0.00 in 0 W/m2
05:10 48.9 °F 45.5 °F 29.58 in WNW 20.0 mph 20.0 mph 88 % 0.00 in 0 W/m2
05:15 48.7 °F 45.3 °F 29.59 in WNW 19.0 mph 39.0 mph 88 % 0.00 in 0 W/m2
05:20 48.5 °F 45.1 °F 29.59 in WNW 16.0 mph 16.0 mph 88 % 0.00 in 0 W/m2
05:25 48.3 °F 45.2 °F 29.59 in NW 15.0 mph 21.0 mph 89 % 0.00 in 0 W/m2
05:30 48.2 °F 45.1 °F 29.59 in WSW 17.0 mph 39.0 mph 89 % 0.00 in 0 W/m2
05:35 47.9 °F 44.8 °F 29.59 in WNW 20.0 mph 39.0 mph 89 % 0.00 in 0 W/m2
05:40 47.8 °F 44.7 °F 29.59 in WNW 21.0 mph 21.0 mph 89 % 0.00 in 0 W/m2
05:45 47.6 °F 44.5 °F 29.59 in WNW 19.0 mph 24.0 mph 89 % 0.00 in 0 W/m2
05:55 47.4 °F 43.4 °F 29.59 in West 21.0 mph 39.0 mph 86 % 0.00 in 0 W/m2
06:00 47.4 °F 42.8 °F 29.59 in WNW 21.0 mph 21.0 mph 84 % 0.00 in 0 W/m2
06:05 47.3 °F 42.7 °F 29.59 in WNW 22.0 mph 23.0 mph 84 % 0.00 in 0 W/m2
06:10 47.2 °F 42.6 °F 29.59 in West 22.0 mph 39.0 mph 84 % 0.00 in 0 W/m2
06:15 47.0 °F 42.4 °F 29.59 in West 23.0 mph 39.0 mph 84 % 0.00 in 0 W/m2
06:20 46.9 °F 42.3 °F 29.59 in WNW 22.0 mph 39.0 mph 84 % 0.00 in 0 W/m2
06:25 46.7 °F 42.1 °F 29.59 in WNW 21.0 mph 39.0 mph 84 % 0.00 in 0 W/m2
06:30 46.6 °F 42.3 °F 29.59 in WSW 20.0 mph 20.0 mph 85 % 0.00 in 0 W/m2
06:40 46.3 °F 41.7 °F 29.59 in West 19.0 mph 19.0 mph 84 % 0.00 in 0 W/m2
06:45 46.2 °F 41.6 °F 29.60 in WNW 20.0 mph 24.0 mph 84 % 0.00 in 0 W/m2
06:50 46.1 °F 41.2 °F 29.60 in West 21.0 mph 21.0 mph 83 % 0.00 in 0 W/m2
06:55 46.1 °F 40.9 °F 29.60 in WNW 20.0 mph 22.0 mph 82 % 0.00 in 0 W/m2
07:00 46.1 °F 40.9 °F 29.60 in West 20.0 mph 39.0 mph 82 % 0.00 in 0 W/m2
07:05 46.0 °F 40.8 °F 29.59 in West 19.0 mph 39.0 mph 82 % 0.00 in 0 W/m2
07:10 46.1 °F 40.9 °F 29.59 in West 20.0 mph 20.0 mph 82 % 0.00 in 0 W/m2
07:20 46.1 °F 41.5 °F 29.59 in WNW 20.0 mph 39.0 mph 84 % 0.00 in 7 W/m2
07:30 46.5 °F 41.9 °F 29.59 in WNW 22.0 mph 22.0 mph 84 % 0.00 in 14 W/m2
07:35 46.5 °F 41.9 °F 29.59 in West 20.0 mph 39.0 mph 84 % 0.00 in 19 W/m2
07:40 46.5 °F 41.9 °F 29.60 in West 21.0 mph 39.0 mph 84 % 0.00 in 25 W/m2
07:45 46.7 °F 42.1 °F 29.59 in West 22.0 mph 39.0 mph 84 % 0.00 in 30 W/m2
07:50 46.9 °F 42.3 °F 29.60 in West 23.0 mph 39.0 mph 84 % 0.00 in 35 W/m2
08:00 47.0 °F 42.7 °F 29.59 in West 22.0 mph 39.0 mph 85 % 0.00 in 47 W/m2
08:05 47.1 °F 42.8 °F 29.59 in West 23.0 mph 39.0 mph 85 % 0.00 in 56 W/m2
08:15 47.2 °F 42.6 °F 29.58 in NW 23.0 mph 39.0 mph 84 % 0.00 in 72 W/m2
08:20 47.1 °F 42.5 °F 29.59 in WNW 21.0 mph 21.0 mph 84 % 0.00 in 72 W/m2
08:25 47.3 °F 42.1 °F 29.59 in West 22.0 mph 22.0 mph 82 % 0.00 in 95 W/m2
08:30 47.4 °F 42.2 °F 29.59 in West 23.0 mph 39.0 mph 82 % 0.00 in 123 W/m2
08:35 47.5 °F 42.6 °F 29.58 in WNW 23.0 mph 39.0 mph 83 % 0.00 in 148 W/m2
08:40 47.7 °F 42.8 °F 29.58 in West 22.0 mph 22.0 mph 83 % 0.00 in 158 W/m2
08:45 47.9 °F 43.0 °F 29.58 in WSW 21.0 mph 39.0 mph 83 % 0.00 in 156 W/m2
08:55 48.2 °F 43.0 °F 29.58 in WNW 22.0 mph 24.0 mph 82 % 0.00 in 162 W/m2
09:00 48.4 °F 42.8 °F 29.59 in NW 23.0 mph 39.0 mph 81 % 0.00 in 206 W/m2
09:05 48.5 °F 42.9 °F 29.59 in WNW 23.0 mph 39.0 mph 81 % 0.00 in 190 W/m2
09:10 48.5 °F 42.9 °F 29.59 in West 23.0 mph 39.0 mph 81 % 0.00 in 199 W/m2
09:15 48.5 °F 42.9 °F 29.59 in West 22.0 mph 39.0 mph 81 % 0.00 in 209 W/m2
09:20 48.6 °F 42.7 °F 29.59 in WNW 22.0 mph 39.0 mph 80 % 0.00 in 237 W/m2
09:25 48.8 °F 42.9 °F 29.58 in West 23.0 mph 39.0 mph 80 % 0.00 in 243 W/m2
09:35 49.0 °F 43.1 °F 29.58 in WNW 20.0 mph 39.0 mph 80 % 0.00 in 279 W/m2
09:40 49.2 °F 43.3 °F 29.59 in WNW 20.0 mph 39.0 mph 80 % 0.00 in 264 W/m2
09:45 49.3 °F 43.4 °F 29.59 in WNW 21.0 mph 39.0 mph 80 % 0.00 in 283 W/m2
09:50 49.5 °F 43.3 °F 29.60 in WNW 23.0 mph 39.0 mph 79 % 0.00 in 313 W/m2
09:55 49.6 °F 43.0 °F 29.60 in WNW 25.0 mph 39.0 mph 78 % 0.00 in 338 W/m2
10:00 49.8 °F 43.2 °F 29.59 in WNW 25.0 mph 25.0 mph 78 % 0.00 in 315 W/m2
10:05 49.9 °F 43.3 °F 29.60 in WNW 26.0 mph 26.0 mph 78 % 0.00 in 323 W/m2
10:15 50.1 °F 43.5 °F 29.60 in West 23.0 mph 30.0 mph 78 % 0.00 in 278 W/m2
10:20 50.1 °F 43.8 °F 29.61 in WNW 22.0 mph 39.0 mph 79 % 0.00 in 237 W/m2
11:15 50.5 °F 42.9 °F 29.62 in WNW 26.0 mph 39.0 mph 75 % 0.00 in 209 W/m2
11:20 50.4 °F 42.8 °F 29.61 in West 24.0 mph 24.0 mph 75 % 0.00 in 246 W/m2
11:25 50.2 °F 42.9 °F 29.61 in WSW 23.0 mph 29.0 mph 76 % 0.00 in 258 W/m2
11:30 50.2 °F 42.6 °F 29.61 in West 24.0 mph 39.0 mph 75 % 0.00 in 313 W/m2
11:35 50.3 °F 43.0 °F 29.62 in NW 25.0 mph 39.0 mph 76 % 0.00 in 308 W/m2
11:40 50.5 °F 43.2 °F 29.62 in WNW 23.0 mph 39.0 mph 76 % 0.00 in 362 W/m2
11:45 50.4 °F 42.8 °F 29.62 in West 22.0 mph 39.0 mph 75 % 0.00 in 274 W/m2
11:55 50.4 °F 41.0 °F 29.61 in WSW 25.0 mph 25.0 mph 70 % 0.00 in 364 W/m2
12:05 50.6 °F 41.2 °F 29.60 in WNW 26.0 mph 28.0 mph 70 % 0.00 in 374 W/m2
12:10 50.8 °F 41.7 °F 29.60 in West 24.0 mph 24.0 mph 71 % 0.00 in 438 W/m2
12:15 50.9 °F 41.5 °F 29.60 in West 25.0 mph 25.0 mph 70 % 0.00 in 450 W/m2
12:20 51.0 °F 41.2 °F 29.60 in NW 26.0 mph 26.0 mph 69 % 0.00 in 278 W/m2
12:30 51.4 °F 41.6 °F 29.60 in West 21.0 mph 21.0 mph 69 % 0.00 in 427 W/m2
12:35 51.5 °F 40.9 °F 29.60 in WNW 22.0 mph 34.0 mph 67 % 0.00 in 441 W/m2
12:40 51.5 °F 40.1 °F 29.60 in West 25.0 mph 39.0 mph 65 % 0.00 in 468 W/m2
12:45 51.6 °F 40.6 °F 29.60 in WNW 24.0 mph 39.0 mph 66 % 0.00 in 459 W/m2
12:50 51.5 °F 40.5 °F 29.60 in West 23.0 mph 39.0 mph 66 % 0.00 in 413 W/m2
13:00 51.2 °F 40.2 °F 29.61 in West 26.0 mph 39.0 mph 66 % 0.00 in 323 W/m2
13:05 51.2 °F 40.2 °F 29.60 in West 24.0 mph 39.0 mph 66 % 0.00 in 443 W/m2
13:10 51.5 °F 40.9 °F 29.60 in WNW 24.0 mph 24.0 mph 67 % 0.00 in 480 W/m2
13:15 51.7 °F 40.7 °F 29.60 in WNW 24.0 mph 26.0 mph 66 % 0.00 in 471 W/m2
13:30 51.3 °F 39.9 °F 29.60 in WNW 27.0 mph 39.0 mph 65 % 0.00 in 446 W/m2
13:40 51.2 °F 39.4 °F 29.60 in WNW 26.0 mph 26.0 mph 64 % 0.00 in 422 W/m2
13:45 51.3 °F 39.9 °F 29.60 in NW 23.0 mph 39.0 mph 65 % 0.00 in 434 W/m2
13:50 51.5 °F 39.7 °F 29.61 in WNW 21.0 mph 39.0 mph 64 % 0.00 in 424 W/m2
13:55 51.3 °F 39.9 °F 29.60 in NNW 23.0 mph 39.0 mph 65 % 0.00 in 429 W/m2
14:00 51.4 °F 40.0 °F 29.59 in WNW 23.0 mph 23.0 mph 65 % 0.00 in 404 W/m2
14:10 51.3 °F 39.5 °F 29.59 in WNW 23.0 mph 23.0 mph 64 % 0.00 in 427 W/m2
14:15 51.4 °F 39.2 °F 29.58 in West 22.0 mph 39.0 mph 63 % 0.00 in 431 W/m2
14:20 51.6 °F 39.4 °F 29.59 in West 20.0 mph 39.0 mph 63 % 0.00 in 431 W/m2
14:25 51.5 °F 38.9 °F 29.59 in WNW 22.0 mph 39.0 mph 62 % 0.00 in 385 W/m2
14:30 51.4 °F 39.2 °F 29.58 in WSW 22.0 mph 22.0 mph 63 % 0.00 in 369 W/m2
14:40 51.6 °F 39.4 °F 29.58 in NW 20.0 mph 39.0 mph 63 % 0.00 in 439 W/m2
14:45 51.8 °F 40.0 °F 29.58 in WNW 19.0 mph 39.0 mph 64 % 0.00 in 441 W/m2
14:55 51.8 °F 39.6 °F 29.58 in WNW 21.0 mph 39.0 mph 63 % 0.00 in 383 W/m2
15:00 51.7 °F 39.9 °F 29.58 in West 21.0 mph 39.0 mph 64 % 0.00 in 318 W/m2
15:05 51.3 °F 39.9 °F 29.58 in WNW 21.0 mph 39.0 mph 65 % 0.00 in 265 W/m2
15:15 50.9 °F 40.3 °F 29.59 in NW 20.0 mph 39.0 mph 67 % 0.00 in 287 W/m2
15:20 50.7 °F 40.5 °F 29.58 in West 19.0 mph 39.0 mph 68 % 0.00 in 174 W/m2
15:25 50.4 °F 40.2 °F 29.59 in NW 19.0 mph 39.0 mph 68 % 0.00 in 183 W/m2
15:30 50.3 °F 40.9 °F 29.59 in WSW 19.0 mph 19.0 mph 70 % 0.00 in 258 W/m2
15:35 50.4 °F 40.6 °F 29.59 in WNW 18.0 mph 39.0 mph 69 % 0.00 in 174 W/m2
15:40 50.3 °F 40.5 °F 29.59 in West 16.0 mph 16.0 mph 69 % 0.00 in 172 W/m2
15:50 50.0 °F 40.6 °F 29.59 in West 16.0 mph 16.0 mph 70 % 0.00 in 146 W/m2
15:55 49.8 °F 40.8 °F 29.59 in WNW 16.0 mph 39.0 mph 71 % 0.00 in 137 W/m2
16:00 49.6 °F 40.9 °F 29.60 in West 15.0 mph 15.0 mph 72 % 0.00 in 111 W/m2
16:10 49.3 °F 40.3 °F 29.60 in WNW 14.0 mph 14.0 mph 71 % 0.00 in 95 W/m2
16:15 49.3 °F 40.7 °F 29.60 in WNW 12.0 mph 39.0 mph 72 % 0.00 in 86 W/m2
16:25 48.8 °F 40.2 °F 29.60 in NW 14.0 mph 39.0 mph 72 % 0.00 in 76 W/m2
16:30 48.7 °F 40.1 °F 29.60 in WNW 15.0 mph 15.0 mph 72 % 0.00 in 67 W/m2
16:35 48.5 °F 40.2 °F 29.61 in WNW 14.0 mph 39.0 mph 73 % 0.00 in 47 W/m2
16:40 48.4 °F 40.5 °F 29.61 in WNW 12.0 mph 39.0 mph 74 % 0.00 in 40 W/m2
16:45 48.4 °F 40.5 °F 29.61 in WNW 11.0 mph 39.0 mph 74 % 0.00 in 26 W/m2
16:55 48.3 °F 41.1 °F 29.61 in NNW 8.0 mph 39.0 mph 76 % 0.00 in 9 W/m2
17:00 48.3 °F 41.4 °F 29.61 in NW 8.0 mph 39.0 mph 77 % 0.00 in 7 W/m2
17:05 48.2 °F 41.3 °F 29.61 in West 8.0 mph 39.0 mph 77 % 0.00 in 5 W/m2
17:15 48.3 °F 41.4 °F 29.62 in WNW 7.0 mph 39.0 mph 77 % 0.00 in 9 W/m2
17:20 48.3 °F 41.8 °F 29.62 in NW 6.0 mph 6.0 mph 78 % 0.00 in 9 W/m2
17:30 48.2 °F 41.7 °F 29.62 in WNW 4.0 mph 39.0 mph 78 % 0.00 in 0 W/m2
17:35 48.2 °F 42.0 °F 29.63 in West 5.0 mph 39.0 mph 79 % 0.00 in 0 W/m2
17:40 48.2 °F 42.0 °F 29.63 in WNW 4.0 mph 4.0 mph 79 % 0.00 in 0 W/m2
17:45 48.2 °F 41.7 °F 29.63 in WNW 3.0 mph 5.0 mph 78 % 0.00 in 0 W/m2
17:50 48.2 °F 41.7 °F 29.63 in NW 2.0 mph 39.0 mph 78 % 0.00 in 0 W/m2
17:55 48.2 °F 41.7 °F 29.62 in NW 4.0 mph 39.0 mph 78 % 0.00 in 0 W/m2
18:05 48.1 °F 41.6 °F 29.62 in West 5.0 mph 39.0 mph 78 % 0.00 in 0 W/m2
18:10 48.0 °F 41.8 °F 29.62 in WNW 5.0 mph 39.0 mph 79 % 0.00 in 0 W/m2
18:15 48.0 °F 41.8 °F 29.62 in West 5.0 mph 39.0 mph 79 % 0.00 in 0 W/m2
18:20 48.0 °F 41.8 °F 29.63 in West 6.0 mph 6.0 mph 79 % 0.00 in 0 W/m2
18:25 48.0 °F 41.8 °F 29.63 in West 5.0 mph 39.0 mph 79 % 0.00 in 0 W/m2
18:35 47.9 °F 41.7 °F 29.63 in West 5.0 mph 39.0 mph 79 % 0.00 in 0 W/m2
18:45 47.9 °F 41.7 °F 29.63 in West 2.0 mph 4.0 mph 79 % 0.00 in 0 W/m2
18:50 47.9 °F 42.0 °F 29.63 in West 3.0 mph 3.0 mph 80 % 0.00 in 0 W/m2
18:55 47.9 °F 42.0 °F 29.63 in WSW 3.0 mph 5.0 mph 80 % 0.00 in 0 W/m2
19:00 47.9 °F 42.0 °F 29.63 in WSW 3.0 mph 3.0 mph 80 % 0.00 in 0 W/m2
19:10 48.0 °F 42.4 °F 29.63 in WSW 5.0 mph 5.0 mph 81 % 0.00 in 0 W/m2
19:15 48.0 °F 42.4 °F 29.63 in WSW 4.0 mph 39.0 mph 81 % 0.00 in 0 W/m2
19:20 48.0 °F 42.1 °F 29.63 in WSW 6.0 mph 39.0 mph 80 % 0.00 in 0 W/m2
19:25 48.0 °F 42.1 °F 29.63 in WNW 7.0 mph 39.0 mph 80 % 0.00 in 0 W/m2
19:30 48.0 °F 42.1 °F 29.63 in West 6.0 mph 6.0 mph 80 % 0.00 in 0 W/m2
19:35 47.9 °F 42.0 °F 29.64 in West 4.0 mph 7.0 mph 80 % 0.00 in 0 W/m2
19:45 47.9 °F 42.0 °F 29.63 in West 5.0 mph 39.0 mph 80 % 0.00 in 0 W/m2
19:50 47.9 °F 42.0 °F 29.63 in West 5.0 mph 5.0 mph 80 % 0.00 in 0 W/m2
19:55 47.8 °F 41.9 °F 29.63 in WNW 5.0 mph 39.0 mph 80 % 0.00 in 0 W/m2
20:00 47.8 °F 41.9 °F 29.63 in WNW 5.0 mph 5.0 mph 80 % 0.00 in 0 W/m2
20:10 47.7 °F 42.2 °F 29.62 in WSW 4.0 mph 5.0 mph 81 % 0.00 in 0 W/m2
20:20 47.6 °F 42.1 °F 29.62 in West 4.0 mph 5.0 mph 81 % 0.00 in 0 W/m2
20:25 47.5 °F 41.6 °F 29.62 in WNW 5.0 mph 9.0 mph 80 % 0.00 in 0 W/m2
20:30 47.5 °F 42.0 °F 29.61 in West 5.0 mph 6.0 mph 81 % 0.00 in 0 W/m2
20:35 47.4 °F 41.9 °F 29.61 in West 5.0 mph 6.0 mph 81 % 0.00 in 0 W/m2
20:40 47.4 °F 41.9 °F 29.61 in West 5.0 mph 6.0 mph 81 % 0.00 in 0 W/m2
20:50 47.2 °F 42.0 °F 29.61 in West 6.0 mph 7.0 mph 82 % 0.00 in 0 W/m2
20:55 47.1 °F 41.6 °F 29.61 in West 7.0 mph 7.0 mph 81 % 0.00 in 0 W/m2
21:05 46.9 °F 41.7 °F 29.61 in West 5.0 mph 13.0 mph 82 % 0.00 in 0 W/m2
21:10 46.8 °F 41.9 °F 29.60 in West 4.0 mph 4.0 mph 83 % 0.00 in 0 W/m2
21:15 46.7 °F 42.1 °F 29.60 in West 3.0 mph 13.0 mph 84 % 0.00 in 0 W/m2
21:25 46.4 °F 42.1 °F 29.60 in SW 1.0 mph 13.0 mph 85 % 0.00 in 0 W/m2
21:30 46.3 °F 42.0 °F 29.59 in SW 1.0 mph 13.0 mph 85 % 0.00 in 0 W/m2
21:35 46.2 °F 42.2 °F 29.59 in SW 1.0 mph 13.0 mph 86 % 0.00 in 0 W/m2
21:40 46.1 °F 42.1 °F 29.59 in SW 1.0 mph 13.0 mph 86 % 0.00 in 0 W/m2
21:45 46.0 °F 42.3 °F 29.59 in SW 1.0 mph 13.0 mph 87 % 0.00 in 0 W/m2
21:50 45.9 °F 42.2 °F 29.59 in SW 2.0 mph 2.0 mph 87 % 0.00 in 0 W/m2
22:00 45.8 °F 42.4 °F 29.58 in SW 2.0 mph 2.0 mph 88 % 0.00 in 0 W/m2
22:05 45.7 °F 42.3 °F 29.58 in SW 1.0 mph 13.0 mph 88 % 0.00 in 0 W/m2
22:10 45.7 °F 42.6 °F 29.58 in SW 1.0 mph 1.0 mph 89 % 0.00 in 0 W/m2
22:15 45.7 °F 42.6 °F 29.58 in SW 1.0 mph 13.0 mph 89 % 0.00 in 0 W/m2
22:25 45.5 °F 42.4 °F 29.57 in SW 2.0 mph 13.0 mph 89 % 0.00 in 0 W/m2
22:30 45.4 °F 42.6 °F 29.57 in SW 2.0 mph 2.0 mph 90 % 0.00 in 0 W/m2
22:40 45.3 °F 42.5 °F 29.56 in Calm   13.0 mph 90 % 0.00 in 0 W/m2
22:45 45.2 °F 42.4 °F 29.56 in Calm   13.0 mph 90 % 0.00 in 0 W/m2
22:50 45.2 °F 42.7 °F 29.56 in Calm   13.0 mph 91 % 0.00 in 0 W/m2
22:55 45.1 °F 42.3 °F 29.56 in SW 1.0 mph 13.0 mph 90 % 0.04 in 0 W/m2
23:05 45.1 °F 42.6 °F 29.55 in Calm   13.0 mph 91 % 0.06 in 0 W/m2
23:10 45.0 °F 42.5 °F 29.55 in Calm   13.0 mph 91 % 0.06 in 0 W/m2
23:15 45.0 °F 42.8 °F 29.55 in Calm   13.0 mph 92 % 0.06 in 0 W/m2
23:20 45.0 °F 42.8 °F 29.54 in Calm   13.0 mph 92 % 0.04 in 0 W/m2
23:25 44.9 °F 42.7 °F 29.54 in Calm   13.0 mph 92 % 0.04 in 0 W/m2
23:30 44.8 °F 42.6 °F 29.54 in Calm   13.0 mph 92 % 0.06 in 0 W/m2
23:40 44.6 °F 42.7 °F 29.53 in Calm   13.0 mph 93 % 0.06 in 0 W/m2
23:45 44.6 °F 42.7 °F 29.52 in Calm   13.0 mph 93 % 0.06 in 0 W/m2
23:50 44.6 °F 42.7 °F 29.52 in Calm   13.0 mph 93 % 0.07 in 0 W/m2
Delerius-Weather
Compliments of Weather Underground - 2 mb

Data updates at regular intervals.